Time;durP1;ratioP1;P1;durP2;ratioP2;P2;SDS_P1;SDS_P2;PMS_P1;PMS_P2;Temp;Humidity;BMP_temperature;BMP_pressure;BME280_temperature;BME280_humidity;BME280_pressure;Samples;Min_cycle;Max_cycle;Signal;HPM_P1;HPM_P2
2022/05/12 14:23:22;;;;;;;;;;;;;;;25.16;72.13;98677.31;4860871;29;19962;-73
2022/05/12 14:25:49;;;;;;;;;;;;;;;25.15;69.90;98678.59;4859895;29;19950;-75
2022/05/12 14:28:17;;;;;;;;;;;;;;;25.21;68.72;98685.22;4863829;29;19973;-72
2022/05/12 14:30:44;;;;;;;;;;;;;;;25.28;71.26;98685.66;4862492;29;19965;-72
2022/05/12 14:33:11;;;;;;;;;;;;;;;25.25;65.87;98685.84;4866839;29;20236;-72
2022/05/12 14:35:39;;;;;;;;;;;;;;;25.18;67.08;98684.13;4862516;29;19953;-72
2022/05/12 14:38:07;;;;;;;;;;;;;;;25.19;64.36;98682.03;4864929;29;19977;-72
2022/05/12 14:40:34;;;;;;;;;;;;;;;25.19;69.71;98684.91;4862984;29;20349;-72
2022/05/12 14:43:01;;;;;;;;;;;;;;;25.13;71.88;98686.88;4872332;29;20372;-72
2022/05/12 14:45:29;;;;;;;;;;;;;;;25.05;65.45;98686.44;4862787;29;20224;-72
2022/05/12 14:48:00;;;;;;;;;;;;;;;25.03;64.70;98689.00;4862887;29;19968;-72
2022/05/12 14:50:28;;;;;;;;;;;;;;;25.07;63.83;98706.78;4862586;29;19948;-72
2022/05/12 14:52:55;;;;;;;;;;;;;;;24.98;61.51;98694.59;4851046;29;20247;-72
2022/05/12 14:55:24;;;;;;;;;;;;;;;24.97;65.64;98690.13;4864661;29;19956;-71
2022/05/12 14:57:51;;;;;;;;;;;;;;;25.06;58.87;98692.97;4864896;29;19955;-71
2022/05/12 15:00:18;;;;;;;;;;;;;;;25.00;66.66;98689.16;4859944;29;19955;-72
2022/05/12 15:02:46;;;;;;;;;;;;;;;24.87;67.26;98688.63;4859724;29;19962;-72
2022/05/12 15:05:14;;;;;;;;;;;;;;;24.82;68.26;98690.06;4863386;29;19953;-72
2022/05/12 15:07:41;;;;;;;;;;;;;;;24.77;71.41;98696.47;4863385;29;19971;-72
2022/05/12 15:10:11;;;;;;;;;;;;;;;24.85;63.40;98706.25;4862127;29;19948;-72
2022/05/12 15:12:39;;;;;;;;;;;;;;;24.77;63.53;98702.19;4860020;29;19949;-72
2022/05/12 15:15:06;;;;;;;;;;;;;;;24.67;64.52;98684.22;4860461;29;19973;-72
2022/05/12 15:17:35;;;;;;;;;;;;;;;24.63;62.09;98680.75;4858753;29;19948;-70
2022/05/12 15:20:08;;;;;;;;;;;;;;;24.67;62.86;98695.66;4866325;29;19985;-72
2022/05/12 15:22:36;;;;;;;;;;;;;;;24.59;58.06;98685.88;4860078;29;19978;-72
2022/05/12 15:25:05;;;;;;;;;;;;;;;24.50;67.24;98679.41;4863830;29;19954;-72
2022/05/12 15:27:34;;;;;;;;;;;;;;;24.53;62.90;98682.06;4864142;29;19968;-72
2022/05/12 15:30:03;;;;;;;;;;;;;;;24.54;61.79;98682.88;4863387;29;19948;-72
2022/05/12 15:32:31;;;;;;;;;;;;;;;24.45;64.88;98674.31;4867009;29;20213;-73
2022/05/12 15:35:01;;;;;;;;;;;;;;;24.31;64.98;98672.94;4866817;29;19949;-72
2022/05/12 15:37:28;;;;;;;;;;;;;;;24.26;69.46;98669.97;4865607;29;20423;-73
2022/05/12 15:39:55;;;;;;;;;;;;;;;24.26;66.82;98681.38;4865510;29;19951;-73
2022/05/12 15:42:23;;;;;;;;;;;;;;;24.12;64.25;98668.56;4850342;29;19951;-72
2022/05/12 15:44:53;;;;;;;;;;;;;;;24.08;65.93;98679.38;4865657;29;19950;-73
2022/05/12 15:47:25;;;;;;;;;;;;;;;23.94;70.11;98677.91;4864949;29;19949;-72
2022/05/12 15:49:52;;;;;;;;;;;;;;;23.99;63.86;98680.13;4865216;29;19966;-72
2022/05/12 15:52:20;;;;;;;;;;;;;;;23.84;67.79;98675.56;4864888;29;19985;-73
2022/05/12 15:54:47;;;;;;;;;;;;;;;23.93;66.71;98682.06;4850304;29;19954;-72
2022/05/12 15:57:14;;;;;;;;;;;;;;;23.82;66.10;98683.81;4865875;29;19957;-72
2022/05/12 15:59:41;;;;;;;;;;;;;;;23.82;68.54;98684.59;4865940;29;19954;-72
2022/05/12 16:02:11;;;;;;;;;;;;;;;23.86;64.07;98676.69;4866525;29;20361;-73
2022/05/12 16:04:39;;;;;;;;;;;;;;;23.73;66.28;98678.91;4866604;29;19957;-73
2022/05/12 16:07:06;;;;;;;;;;;;;;;23.65;63.63;98677.66;4869890;29;19953;-73
2022/05/12 16:09:33;;;;;;;;;;;;;;;23.65;65.02;98686.22;4879183;29;19965;-73
2022/05/12 16:14:39;;;;;;;;;;;;;;;23.51;65.27;98678.28;4865386;29;19949;-72
2022/05/12 16:17:06;;;;;;;;;;;;;;;23.45;63.29;98680.97;4857936;29;19955;-73
2022/05/12 16:19:33;;;;;;;;;;;;;;;23.41;66.66;98671.00;4866493;29;19950;-73
2022/05/12 16:22:00;;;;;;;;;;;;;;;23.34;67.05;98688.41;4857522;29;19975;-73
2022/05/12 16:24:28;;;;;;;;;;;;;;;23.35;67.17;98687.16;4865813;29;19948;-73
2022/05/12 16:26:55;;;;;;;;;;;;;;;23.33;67.26;98686.81;4860957;29;19960;-73
2022/05/12 16:29:26;;;;;;;;;;;;;;;23.28;68.02;98670.34;4867297;29;20351;-73
2022/05/12 16:31:56;;;;;;;;;;;;;;;23.23;66.93;98674.59;4860530;29;20613;-73
2022/05/12 16:34:23;;;;;;;;;;;;;;;23.24;66.13;98669.69;4861466;29;19950;-72
2022/05/12 16:36:53;;;;;;;;;;;;;;;23.19;67.00;98673.16;4856297;29;19957;-73
2022/05/12 16:39:24;;;;;;;;;;;;;;;23.11;66.96;98669.81;4852976;29;19986;-73
2022/05/12 16:41:52;;;;;;;;;;;;;;;23.11;68.25;98675.53;4866230;29;19961;-73
2022/05/12 16:44:19;;;;;;;;;;;;;;;23.02;70.48;98658.41;4864161;29;20240;-73
2022/05/12 16:46:48;;;;;;;;;;;;;;;22.96;72.99;98666.03;4856027;29;20050;-73
2022/05/12 16:49:22;;;;;;;;;;;;;;;22.89;70.56;98658.53;4857618;29;19972;-73
2022/05/12 16:51:49;;;;;;;;;;;;;;;23.02;62.81;98669.03;4861049;29;19948;-72
2022/05/12 16:54:16;;;;;;;;;;;;;;;22.89;68.46;98660.59;4861280;29;19954;-72
2022/05/12 16:56:43;;;;;;;;;;;;;;;22.75;69.79;98667.69;4865900;29;20219;-72
2022/05/12 16:59:10;;;;;;;;;;;;;;;22.69;67.12;98666.72;4862577;29;19949;-72
2022/05/12 17:01:38;;;;;;;;;;;;;;;22.72;60.45;98664.97;4866712;29;19949;-72
2022/05/12 17:04:05;;;;;;;;;;;;;;;22.56;64.16;98659.53;4864498;29;20286;-72
2022/05/12 17:06:33;;;;;;;;;;;;;;;22.46;65.44;98655.06;4858830;29;19957;-73
2022/05/12 17:09:00;;;;;;;;;;;;;;;22.41;63.62;98664.22;4860285;29;19964;-72
2022/05/12 17:11:41;;;;;;;;;;;;;;;22.38;65.16;98660.25;4858181;29;19947;-73
2022/05/12 17:14:09;;;;;;;;;;;;;;;22.42;65.36;98649.53;4855395;29;19956;-73
2022/05/12 17:16:36;;;;;;;;;;;;;;;22.38;62.70;98660.25;4863456;29;19960;-73
2022/05/12 17:19:04;;;;;;;;;;;;;;;22.39;66.64;98649.66;4847248;29;19959;-73
2022/05/12 17:21:31;;;;;;;;;;;;;;;22.34;65.44;98655.97;4858711;29;19968;-71
2022/05/12 17:24:01;;;;;;;;;;;;;;;22.23;67.32;98642.94;4864946;29;20228;-71
2022/05/12 17:26:28;;;;;;;;;;;;;;;22.18;65.12;98657.78;4866449;29;19958;-72
2022/05/12 17:28:56;;;;;;;;;;;;;;;22.12;64.36;98653.97;4859491;29;19973;-72
2022/05/12 17:31:23;;;;;;;;;;;;;;;22.23;61.05;98650.69;4859622;29;19960;-72
2022/05/12 17:33:52;;;;;;;;;;;;;;;22.06;65.04;98652.19;4846766;29;19956;-72
2022/05/12 17:36:20;;;;;;;;;;;;;;;22.03;65.07;98662.44;4860962;29;20241;-72
2022/05/12 17:38:48;;;;;;;;;;;;;;;21.98;61.84;98660.19;4865749;29;19956;-72
2022/05/12 17:41:16;;;;;;;;;;;;;;;21.98;63.83;98656.59;4851727;29;19949;-72
2022/05/12 17:43:43;;;;;;;;;;;;;;;21.90;61.43;98653.22;4861910;29;19950;-72
2022/05/12 17:46:12;;;;;;;;;;;;;;;21.88;65.30;98658.59;4854247;29;19948;-71
2022/05/12 17:48:40;;;;;;;;;;;;;;;21.76;63.68;98662.28;4865637;29;19949;-71
2022/05/12 17:51:10;;;;;;;;;;;;;;;21.72;64.85;98664.44;4865638;29;19961;-71
2022/05/12 17:53:37;;;;;;;;;;;;;;;21.65;65.53;98661.06;4858735;29;20028;-71
2022/05/12 17:56:05;;;;;;;;;;;;;;;21.68;63.07;98663.00;4866678;29;19954;-71
2022/05/12 17:58:33;;;;;;;;;;;;;;;21.57;64.81;98669.06;4865515;29;19958;-72
2022/05/12 18:01:00;;;;;;;;;;;;;;;21.52;65.66;98676.16;4865660;29;20265;-71
2022/05/12 18:03:27;;;;;;;;;;;;;;;21.37;66.43;98675.06;4865533;29;20236;-71
2022/05/12 18:05:55;;;;;;;;;;;;;;;21.30;66.51;98672.50;4882409;29;19956;-72
2022/05/12 18:08:23;;;;;;;;;;;;;;;21.21;67.84;98674.47;4854594;29;19955;-71
2022/05/12 18:10:52;;;;;;;;;;;;;;;21.22;64.89;98676.88;4846431;29;20000;-72
2022/05/12 18:13:20;;;;;;;;;;;;;;;21.15;67.20;98682.78;4856659;29;20348;-72
2022/05/12 18:15:48;;;;;;;;;;;;;;;21.07;66.66;98690.00;4865403;29;19950;-72
2022/05/12 18:18:16;;;;;;;;;;;;;;;21.06;64.05;98690.44;4864815;29;19956;-72
2022/05/12 18:20:44;;;;;;;;;;;;;;;21.00;64.84;98695.91;4864461;29;19950;-72
2022/05/12 18:23:12;;;;;;;;;;;;;;;20.91;63.61;98698.63;4864615;29;19977;-72
2022/05/12 18:25:39;;;;;;;;;;;;;;;20.98;60.46;98694.75;4863756;29;20329;-72
2022/05/12 18:28:09;;;;;;;;;;;;;;;20.89;62.56;98684.88;4863847;29;19953;-72
2022/05/12 18:30:36;;;;;;;;;;;;;;;20.88;65.23;98679.66;4864247;29;20051;-71
2022/05/12 18:33:03;;;;;;;;;;;;;;;20.74;64.98;98697.97;4863145;29;20377;-71
2022/05/12 18:35:31;;;;;;;;;;;;;;;20.74;60.87;98691.47;4863733;29;20343;-72
2022/05/12 18:37:59;;;;;;;;;;;;;;;20.74;62.50;98694.31;4863568;29;19957;-72
2022/05/12 18:40:26;;;;;;;;;;;;;;;20.68;62.09;98708.34;4864095;29;19980;-72
2022/05/12 18:42:56;;;;;;;;;;;;;;;20.61;63.25;98699.25;4862339;29;19956;-72
2022/05/12 18:45:25;;;;;;;;;;;;;;;20.56;63.99;98714.03;4859206;29;19966;-72
2022/05/12 18:47:52;;;;;;;;;;;;;;;20.44;65.21;98711.97;4858116;29;19949;-72
2022/05/12 18:50:20;;;;;;;;;;;;;;;20.33;66.62;98708.66;4863671;29;20371;-72
2022/05/12 18:52:47;;;;;;;;;;;;;;;20.26;67.97;98704.81;4862121;29;19984;-72
2022/05/12 18:55:17;;;;;;;;;;;;;;;20.26;66.23;98712.53;4862707;29;20235;-72
2022/05/12 18:57:44;;;;;;;;;;;;;;;20.18;65.82;98706.22;4862702;29;20252;-72
2022/05/12 19:00:14;;;;;;;;;;;;;;;20.12;68.93;98712.94;4858661;29;19982;-72
2022/05/12 19:02:42;;;;;;;;;;;;;;;20.10;66.44;98704.84;4860602;29;19955;-72
2022/05/12 19:05:10;;;;;;;;;;;;;;;20.06;66.41;98703.38;4852006;29;19960;-72
2022/05/12 19:07:38;;;;;;;;;;;;;;;20.02;66.28;98705.53;4872749;29;20271;-72
2022/05/12 19:10:05;;;;;;;;;;;;;;;19.90;66.43;98709.16;4862222;29;20367;-72
2022/05/12 19:12:33;;;;;;;;;;;;;;;19.91;66.17;98710.72;4863302;29;19948;-72
2022/05/12 19:15:01;;;;;;;;;;;;;;;20.05;65.49;98707.47;4867135;29;20336;-72
2022/05/12 19:17:30;;;;;;;;;;;;;;;19.93;65.64;98706.19;4866090;29;20254;-72
2022/05/12 19:20:01;;;;;;;;;;;;;;;19.82;67.20;98708.56;4864474;29;20368;-72
2022/05/12 19:22:29;;;;;;;;;;;;;;;19.84;66.27;98710.94;4866650;29;20101;-72
2022/05/12 19:24:57;;;;;;;;;;;;;;;19.79;66.69;98723.63;4864533;29;19951;-72
2022/05/12 19:27:24;;;;;;;;;;;;;;;19.75;66.37;98727.81;4866725;29;20354;-72
2022/05/12 19:29:51;;;;;;;;;;;;;;;19.69;67.57;98719.06;4864138;29;19970;-72
